Time;durP1;ratioP1;P1;durP2;ratioP2;P2;SDS_P1;SDS_P2;PMS_P1;PMS_P2;Temp;Humidity;BMP_temperature;BMP_pressure;BME280_temperature;BME280_humidity;BME280_pressure;Samples;Min_cycle;Max_cycle;Signal;HPM_P1;HPM_P2
2022/07/27 00:01:06;;;;;;;7.95;1.58;;;16.20;99.90;;;;;;5074888;28;20382;-67
2022/07/27 00:03:32;;;;;;;8.93;1.75;;;16.10;99.90;;;;;;5074926;28;20408;-67
2022/07/27 00:05:58;;;;;;;5.90;1.42;;;16.10;99.90;;;;;;5076920;28;20386;-66
2022/07/27 00:08:24;;;;;;;6.38;1.80;;;16.10;99.90;;;;;;5081419;28;20398;-67
2022/07/27 00:10:50;;;;;;;4.93;1.57;;;16.20;99.90;;;;;;5081983;28;20394;-67
2022/07/27 00:13:16;;;;;;;6.43;1.85;;;16.10;99.90;;;;;;5081452;28;20467;-66
2022/07/27 00:15:42;;;;;;;4.47;1.50;;;16.10;99.90;;;;;;5080802;28;20746;-67
2022/07/27 00:18:08;;;;;;;7.40;1.93;;;16.10;99.90;;;;;;5083079;28;20418;-66
2022/07/27 00:20:33;;;;;;;5.30;1.23;;;16.10;99.90;;;;;;5083914;28;20751;-67
2022/07/27 00:22:59;;;;;;;4.93;1.50;;;16.20;99.90;;;;;;5083465;28;20401;-67
2022/07/27 00:25:26;;;;;;;3.90;1.50;;;16.20;99.90;;;;;;5083445;28;20393;-67
2022/07/27 00:27:52;;;;;;;3.63;1.40;;;16.20;99.90;;;;;;5083204;28;20389;-67
2022/07/27 00:30:18;;;;;;;7.53;1.80;;;16.20;99.90;;;;;;5085256;28;20647;-66
2022/07/27 00:32:44;;;;;;;6.13;1.63;;;16.30;99.90;;;;;;5090058;28;20857;-67
2022/07/27 00:35:10;;;;;;;6.43;1.55;;;16.20;99.90;;;;;;5085993;28;20389;-66
2022/07/27 00:37:36;;;;;;;4.78;1.42;;;16.10;99.90;;;;;;5085471;28;20668;-66
2022/07/27 00:40:03;;;;;;;4.60;1.50;;;16.10;99.90;;;;;;5087083;28;20394;-67
2022/07/27 00:42:30;;;;;;;5.75;1.50;;;16.10;99.90;;;;;;5088282;28;20674;-66
2022/07/27 00:44:56;;;;;;;4.28;1.60;;;16.20;99.90;;;;;;5087291;28;20674;-67
2022/07/27 00:47:23;;;;;;;5.57;1.55;;;16.20;99.90;;;;;;5086431;28;20385;-66
2022/07/27 00:49:48;;;;;;;4.60;1.48;;;16.20;99.90;;;;;;5089250;28;20377;-67
2022/07/27 00:52:14;;;;;;;5.43;1.45;;;16.20;99.90;;;;;;5090749;28;20471;-67
2022/07/27 00:54:41;;;;;;;7.45;1.33;;;16.30;99.90;;;;;;5088262;28;20374;-67
2022/07/27 00:57:12;;;;;;;4.05;1.60;;;16.30;99.90;;;;;;5086950;28;20382;-67
2022/07/27 00:59:39;;;;;;;2.55;1.25;;;16.30;99.90;;;;;;5086621;28;20370;-67
2022/07/27 01:02:06;;;;;;;5.78;1.70;;;16.30;99.90;;;;;;5088346;28;20455;-66
2022/07/27 01:04:32;;;;;;;4.25;1.38;;;16.30;99.90;;;;;;5088958;28;20378;-67
2022/07/27 01:06:59;;;;;;;5.72;1.60;;;16.20;99.90;;;;;;5089852;28;20405;-66
2022/07/27 01:12:15;;;;;;;6.13;1.73;;;16.20;99.90;;;;;;5092293;28;20397;-66
2022/07/27 01:14:41;;;;;;;5.15;1.70;;;16.10;99.90;;;;;;5089356;28;20417;-66
2022/07/27 01:17:07;;;;;;;3.47;1.25;;;16.00;99.90;;;;;;5089743;28;20412;-66
2022/07/27 01:19:34;;;;;;;5.43;1.50;;;16.10;99.90;;;;;;5090663;28;20692;-66
2022/07/27 01:22:06;;;;;;;7.43;1.65;;;16.10;99.90;;;;;;5090607;28;20713;-66
2022/07/27 01:24:33;;;;;;;4.70;1.65;;;16.10;99.90;;;;;;5089288;28;20374;-66
2022/07/27 01:27:00;;;;;;;4.78;1.10;;;16.10;99.90;;;;;;5090250;28;20662;-66
2022/07/27 01:29:26;;;;;;;3.47;1.38;;;16.10;99.90;;;;;;5092554;28;20406;-66
2022/07/27 01:31:52;;;;;;;5.60;1.60;;;16.10;99.90;;;;;;5092294;28;20451;-67
2022/07/27 01:34:18;;;;;;;5.03;1.43;;;16.00;99.90;;;;;;5092548;28;20378;-66
2022/07/27 01:36:44;;;;;;;5.90;1.48;;;15.90;99.90;;;;;;5092738;28;20432;-66
2022/07/27 01:39:12;;;;;;;5.72;1.45;;;15.90;99.90;;;;;;5093163;28;20406;-67
2022/07/27 01:41:37;;;;;;;4.82;1.58;;;16.00;99.90;;;;;;5091842;28;20666;-66
2022/07/27 01:44:03;;;;;;;4.17;1.40;;;15.90;99.90;;;;;;5090229;28;20790;-67
2022/07/27 01:46:29;;;;;;;4.00;1.20;;;16.00;99.90;;;;;;5089055;28;20382;-66
2022/07/27 01:48:54;;;;;;;4.77;1.47;;;16.00;99.90;;;;;;5089725;28;20386;-65
2022/07/27 01:51:20;;;;;;;6.18;1.42;;;16.00;99.90;;;;;;5090400;28;20462;-65
2022/07/27 01:53:46;;;;;;;5.50;1.40;;;16.00;99.90;;;;;;5089189;28;20459;-66
2022/07/27 01:56:12;;;;;;;4.90;1.50;;;16.00;99.90;;;;;;5090642;28;20664;-66
2022/07/27 01:58:39;;;;;;;5.15;1.40;;;15.90;99.90;;;;;;5092207;28;20374;-66
2022/07/27 02:01:06;;;;;;;5.45;1.70;;;16.00;99.90;;;;;;5090456;28;20452;-66
2022/07/27 02:03:32;;;;;;;4.80;1.50;;;15.90;99.90;;;;;;5092194;28;20397;-66
2022/07/27 02:05:57;;;;;;;3.90;1.30;;;15.90;99.90;;;;;;5091403;28;20386;-67
2022/07/27 02:08:23;;;;;;;5.40;1.53;;;15.80;99.90;;;;;;5092154;28;20416;-67
2022/07/27 02:13:33;;;;;;;3.28;1.27;;;15.90;99.90;;;;;;5091536;28;20992;-66
2022/07/27 02:15:58;;;;;;;7.28;1.70;;;15.90;99.90;;;;;;5090118;28;20664;-66
2022/07/27 02:18:36;;;;;;;5.17;1.87;;;15.90;99.90;;;;;;5095049;28;20477;-67
2022/07/27 02:21:03;;;;;;;7.37;1.93;;;15.80;99.90;;;;;;5094532;28;20447;-67
2022/07/27 02:23:30;;;;;;;5.28;1.40;;;15.70;99.90;;;;;;5091154;28;20397;-67
2022/07/27 02:25:55;;;;;;;6.68;1.40;;;15.70;99.90;;;;;;5090269;28;20390;-67
2022/07/27 02:28:21;;;;;;;5.05;1.60;;;15.60;99.90;;;;;;5089804;28;20382;-67
2022/07/27 02:30:46;;;;;;;6.57;1.87;;;15.60;99.90;;;;;;5089446;28;20406;-67
2022/07/27 02:33:12;;;;;;;6.43;1.60;;;15.70;99.90;;;;;;5090558;28;20404;-67
2022/07/27 02:35:38;;;;;;;4.93;1.67;;;15.70;99.90;;;;;;5091695;28;20395;-67
2022/07/27 02:38:04;;;;;;;5.87;1.80;;;15.70;99.90;;;;;;5090745;28;20635;-67
2022/07/27 02:40:29;;;;;;;4.33;1.47;;;15.70;99.90;;;;;;5090941;28;20605;-67
2022/07/27 02:42:55;;;;;;;5.55;1.90;;;15.70;99.90;;;;;;5091477;28;20381;-67
2022/07/27 02:45:20;;;;;;;6.97;1.90;;;15.80;99.90;;;;;;5090336;28;20793;-67
2022/07/27 02:47:46;;;;;;;7.00;1.95;;;15.70;99.90;;;;;;5089028;28;20382;-67
2022/07/27 02:50:12;;;;;;;3.60;1.23;;;15.60;99.90;;;;;;5086274;28;20829;-67
2022/07/27 02:52:37;;;;;;;4.33;1.33;;;15.50;99.90;;;;;;5086120;28;20507;-67
2022/07/27 02:55:04;;;;;;;5.60;1.73;;;15.60;99.90;;;;;;5087556;28;20378;-66
2022/07/27 02:57:33;;;;;;;3.78;1.30;;;15.60;99.90;;;;;;5087596;28;20381;-65
2022/07/27 02:59:59;;;;;;;4.18;1.20;;;15.60;99.90;;;;;;5088710;28;20566;-65
2022/07/27 03:02:24;;;;;;;4.57;1.30;;;15.60;99.90;;;;;;5090369;28;20809;-65
2022/07/27 03:04:50;;;;;;;5.60;1.57;;;15.70;99.90;;;;;;5089649;28;20381;-65
2022/07/27 03:07:15;;;;;;;5.07;1.63;;;15.60;99.90;;;;;;5089195;28;20393;-66
2022/07/27 03:09:41;;;;;;;5.97;1.20;;;15.50;99.90;;;;;;5090859;28;20497;-66
2022/07/27 03:12:07;;;;;;;6.07;1.50;;;15.50;99.90;;;;;;5092006;28;20537;-65
2022/07/27 03:14:32;;;;;;;4.30;1.38;;;15.50;99.90;;;;;;5090358;28;20386;-65
2022/07/27 03:16:58;;;;;;;6.25;1.60;;;15.50;99.90;;;;;;5087593;28;20382;-66
2022/07/27 03:19:23;;;;;;;5.37;1.67;;;15.50;99.90;;;;;;5087472;28;20655;-66
2022/07/27 03:21:49;;;;;;;11.77;1.98;;;15.40;99.90;;;;;;5087908;28;20401;-66
2022/07/27 03:24:14;;;;;;;5.67;1.33;;;15.40;99.90;;;;;;5086970;28;20670;-65
2022/07/27 03:26:40;;;;;;;6.03;1.40;;;15.40;99.90;;;;;;5089013;28;20386;-66
2022/07/27 03:29:05;;;;;;;4.65;1.42;;;15.40;99.90;;;;;;5091194;28;20436;-65
2022/07/27 03:31:31;;;;;;;6.80;1.80;;;15.30;99.90;;;;;;5088954;28;20545;-65
2022/07/27 03:33:56;;;;;;;7.93;1.67;;;15.10;99.90;;;;;;5091595;28;20516;-66
2022/07/27 03:36:22;;;;;;;5.93;1.40;;;15.10;99.90;;;;;;5091305;28;20386;-66
2022/07/27 03:38:48;;;;;;;7.13;1.93;;;15.10;99.90;;;;;;5091224;28;20378;-66
2022/07/27 03:41:13;;;;;;;5.87;1.70;;;15.10;99.90;;;;;;5090472;28;20424;-65
2022/07/27 03:43:39;;;;;;;4.10;1.45;;;15.10;99.90;;;;;;5091273;28;20394;-65
2022/07/27 03:46:05;;;;;;;5.93;1.60;;;15.10;99.90;;;;;;5093327;28;20425;-65
2022/07/27 03:48:30;;;;;;;8.37;2.10;;;15.10;99.90;;;;;;5091648;28;20394;-65
2022/07/27 03:50:56;;;;;;;3.67;1.50;;;15.10;99.90;;;;;;5089675;28;20535;-66
2022/07/27 03:53:21;;;;;;;5.25;1.38;;;15.10;99.90;;;;;;5089333;28;20413;-66
2022/07/27 03:55:48;;;;;;;5.80;1.70;;;15.10;99.90;;;;;;5089372;28;20386;-66
2022/07/27 03:58:13;;;;;;;9.00;1.55;;;15.10;99.90;;;;;;5089174;28;20662;-65
2022/07/27 04:00:39;;;;;;;5.00;1.48;;;15.10;99.90;;;;;;5088326;28;20786;-66
2022/07/27 04:03:05;;;;;;;7.40;1.80;;;15.10;99.90;;;;;;5088768;28;20405;-66
2022/07/27 04:05:31;;;;;;;5.03;1.53;;;15.10;99.90;;;;;;5089634;28;20393;-66
2022/07/27 04:07:57;;;;;;;4.00;1.40;;;15.10;99.90;;;;;;5092170;28;20409;-66
2022/07/27 04:10:23;;;;;;;5.75;1.83;;;15.20;99.90;;;;;;5090879;28;20381;-66
2022/07/27 04:12:49;;;;;;;6.03;1.60;;;15.20;99.90;;;;;;5089742;28;20514;-66
2022/07/27 04:15:15;;;;;;;4.35;1.42;;;15.20;99.90;;;;;;5086806;28;20760;-66
2022/07/27 04:17:41;;;;;;;4.78;1.40;;;15.30;99.90;;;;;;5086097;28;20421;-65
2022/07/27 04:20:07;;;;;;;5.72;1.65;;;15.30;99.90;;;;;;5086673;28;20466;-65
2022/07/27 04:22:33;;;;;;;4.70;1.70;;;15.30;99.90;;;;;;5088954;28;20432;-66
2022/07/27 04:24:58;;;;;;;5.60;1.45;;;15.20;99.90;;;;;;5087526;28;20658;-66
2022/07/27 04:27:24;;;;;;;4.97;1.43;;;15.10;99.90;;;;;;5089008;28;20457;-66
2022/07/27 04:29:49;;;;;;;6.53;1.70;;;15.10;99.90;;;;;;5091616;28;20478;-66
2022/07/27 04:32:15;;;;;;;5.10;1.60;;;15.10;99.90;;;;;;5090937;28;20418;-67
2022/07/27 04:34:40;;;;;;;8.63;1.90;;;14.90;99.90;;;;;;5090595;28;20722;-66
2022/07/27 04:37:06;;;;;;;4.60;1.70;;;14.90;99.90;;;;;;5090148;28;20470;-66
2022/07/27 04:39:31;;;;;;;5.13;1.60;;;15.00;99.90;;;;;;5090717;28;20837;-66
2022/07/27 04:41:57;;;;;;;6.67;1.50;;;15.00;99.90;;;;;;5089210;28;20378;-67
2022/07/27 04:44:22;;;;;;;4.75;1.48;;;15.00;99.90;;;;;;5088631;28;20392;-67
2022/07/27 04:46:48;;;;;;;4.93;1.73;;;15.00;99.90;;;;;;5087501;28;20662;-66
2022/07/27 04:49:14;;;;;;;4.75;1.50;;;15.10;99.90;;;;;;5089799;28;20417;-66
2022/07/27 04:51:42;;;;;;;5.40;1.80;;;15.10;99.90;;;;;;5087634;28;20422;-66
2022/07/27 04:54:08;;;;;;;3.75;1.33;;;15.10;99.90;;;;;;5087313;28;20845;-66
2022/07/27 04:56:33;;;;;;;3.53;1.20;;;15.10;99.90;;;;;;5090413;28;20413;-66
2022/07/27 04:58:59;;;;;;;2.53;1.37;;;15.20;99.90;;;;;;5088432;28;20392;-66
2022/07/27 05:01:24;;;;;;;4.28;1.35;;;15.20;99.90;;;;;;5087290;28;20401;-67
2022/07/27 05:03:51;;;;;;;5.47;1.70;;;15.10;99.90;;;;;;5085901;28;20660;-67
2022/07/27 05:06:17;;;;;;;5.83;1.67;;;15.10;99.90;;;;;;5085586;28;20472;-67
2022/07/27 05:08:42;;;;;;;4.80;1.65;;;15.10;99.90;;;;;;5085893;28;20428;-66
2022/07/27 05:11:08;;;;;;;5.43;1.70;;;15.10;99.90;;;;;;5085231;28;20401;-66
2022/07/27 05:13:38;;;;;;;6.50;1.50;;;15.10;99.90;;;;;;5085169;28;20824;-66
2022/07/27 05:16:05;;;;;;;5.50;1.80;;;15.10;99.90;;;;;;5084880;28;20431;-66
2022/07/27 05:18:31;;;;;;;4.28;1.48;;;15.10;99.90;;;;;;5085894;28;20390;-66
2022/07/27 05:20:57;;;;;;;5.40;1.43;;;15.30;99.90;;;;;;5086145;28;20382;-66
2022/07/27 05:23:22;;;;;;;4.40;1.53;;;15.30;99.90;;;;;;5085366;28;20429;-66
2022/07/27 05:25:48;;;;;;;7.60;1.77;;;15.30;99.90;;;;;;5086584;28;20628;-66
2022/07/27 05:28:13;;;;;;;5.77;1.80;;;15.40;99.90;;;;;;5086568;28;20381;-66
2022/07/27 05:30:39;;;;;;;7.50;1.90;;;15.30;99.90;;;;;;5084654;28;20378;-66
2022/07/27 05:33:05;;;;;;;5.43;1.40;;;15.40;99.90;;;;;;5083708;28;20928;-66
2022/07/27 05:35:31;;;;;;;6.17;1.60;;;15.40;99.90;;;;;;5085499;28;20386;-66
2022/07/27 05:37:56;;;;;;;6.20;1.40;;;15.40;99.90;;;;;;5086163;28;20513;-66
2022/07/27 05:40:21;;;;;;;7.37;1.80;;;15.40;99.90;;;;;;5090895;28;20385;-67
2022/07/27 05:42:47;;;;;;;6.20;1.65;;;15.40;99.90;;;;;;5087806;28;20444;-66
2022/07/27 05:45:13;;;;;;;5.60;1.50;;;15.40;99.90;;;;;;5086248;28;20781;-67
2022/07/27 05:47:39;;;;;;;6.47;1.55;;;15.40;99.90;;;;;;5084438;28;20374;-67
2022/07/27 05:50:06;;;;;;;7.32;1.70;;;15.40;99.90;;;;;;5081914;28;20868;-67
2022/07/27 05:52:33;;;;;;;6.03;1.70;;;15.50;99.90;;;;;;5079713;28;20655;-67
2022/07/27 05:54:59;;;;;;;6.13;1.70;;;15.50;99.90;;;;;;5079229;28;20386;-67
2022/07/27 05:57:24;;;;;;;7.43;1.50;;;15.50;99.90;;;;;;5079271;28;20382;-67
2022/07/27 05:59:53;;;;;;;5.60;1.57;;;15.50;99.90;;;;;;5078847;28;20382;-67
2022/07/27 06:02:19;;;;;;;6.07;1.55;;;15.50;99.90;;;;;;5076916;28;20392;-67
2022/07/27 06:04:44;;;;;;;12.90;2.20;;;15.50;99.90;;;;;;5076711;28;20382;-67
2022/07/27 06:09:54;;;;;;;9.97;2.03;;;15.40;99.90;;;;;;5078139;28;20385;-67
2022/07/27 06:12:19;;;;;;;5.97;2.00;;;15.40;99.90;;;;;;5076382;28;20553;-67
2022/07/27 06:14:45;;;;;;;8.27;2.30;;;15.40;99.90;;;;;;5076659;28;20373;-67
2022/07/27 06:17:11;;;;;;;6.47;1.80;;;15.40;99.90;;;;;;5076092;28;20370;-66
2022/07/27 06:19:38;;;;;;;4.93;1.63;;;15.40;99.90;;;;;;5077648;28;20580;-67
2022/07/27 06:22:05;;;;;;;6.13;2.00;;;15.30;99.90;;;;;;5076829;28;20651;-66
2022/07/27 06:24:31;;;;;;;7.20;1.80;;;15.10;99.90;;;;;;5076795;28;20370;-66
2022/07/27 06:26:57;;;;;;;7.22;1.83;;;15.10;99.90;;;;;;5079698;28;20378;-67
2022/07/27 06:29:22;;;;;;;7.60;1.77;;;15.00;99.90;;;;;;5080435;28;20798;-66
2022/07/27 06:31:48;;;;;;;6.27;1.50;;;15.00;99.90;;;;;;5078144;28;20438;-67
2022/07/27 06:34:13;;;;;;;6.22;1.75;;;15.00;99.90;;;;;;5082276;28;20513;-67
2022/07/27 06:36:41;;;;;;;4.33;1.70;;;15.10;99.90;;;;;;5082258;28;20525;-66
2022/07/27 06:39:07;;;;;;;8.05;1.60;;;15.20;99.90;;;;;;5082760;28;20494;-66
2022/07/27 06:41:33;;;;;;;3.90;1.47;;;15.30;99.90;;;;;;5082605;28;20765;-67
2022/07/27 06:43:59;;;;;;;6.63;1.70;;;15.40;99.90;;;;;;5076150;28;20382;-67
2022/07/27 06:46:25;;;;;;;6.75;1.50;;;15.40;99.90;;;;;;5077037;28;20784;-67
2022/07/27 06:48:51;;;;;;;9.40;1.50;;;15.40;99.90;;;;;;5077752;28;20390;-67
2022/07/27 06:51:17;;;;;;;4.50;1.20;;;15.40;99.90;;;;;;5078688;28;20389;-66
2022/07/27 06:53:43;;;;;;;4.55;1.60;;;15.40;99.90;;;;;;5076699;28;20799;-66
2022/07/27 06:56:09;;;;;;;5.45;1.65;;;15.40;99.90;;;;;;5077394;28;20612;-66
2022/07/27 06:58:36;;;;;;;5.00;1.35;;;15.40;99.90;;;;;;5072703;28;20508;-67
2022/07/27 07:01:02;;;;;;;4.07;1.40;;;15.40;99.90;;;;;;5070951;28;20715;-66
2022/07/27 07:03:30;;;;;;;8.05;1.55;;;15.40;99.90;;;;;;5070824;28;20381;-67
2022/07/27 07:05:56;;;;;;;5.50;1.50;;;15.50;99.90;;;;;;5072008;28;20799;-66
2022/07/27 07:08:22;;;;;;;6.05;1.60;;;15.60;99.90;;;;;;5074219;28;20554;-66
2022/07/27 07:10:49;;;;;;;7.73;1.60;;;15.60;99.90;;;;;;5073691;28;20629;-67
2022/07/27 07:13:14;;;;;;;6.97;1.65;;;15.60;99.90;;;;;;5074510;28;20406;-67
2022/07/27 07:15:42;;;;;;;5.22;1.73;;;15.70;99.90;;;;;;5075558;28;20602;-67
2022/07/27 07:18:09;;;;;;;6.38;1.65;;;15.70;99.90;;;;;;5072799;28;20385;-67
2022/07/27 07:20:35;;;;;;;7.05;1.70;;;15.80;99.90;;;;;;5058806;28;20773;-67
2022/07/27 07:23:01;;;;;;;4.90;1.70;;;15.80;99.90;;;;;;5072100;28;20401;-66
2022/07/27 07:25:27;;;;;;;5.80;1.80;;;15.90;99.90;;;;;;5074588;28;20393;-66
2022/07/27 07:27:54;;;;;;;7.10;1.83;;;15.80;99.90;;;;;;5075463;28;20386;-67
2022/07/27 07:30:20;;;;;;;5.88;1.40;;;15.80;99.90;;;;;;5074242;28;20382;-66
2022/07/27 07:32:46;;;;;;;6.07;1.75;;;15.90;99.90;;;;;;5071452;28;20425;-67
2022/07/27 07:35:12;;;;;;;6.63;1.90;;;16.00;99.90;;;;;;5069498;28;20378;-67
2022/07/27 07:37:37;;;;;;;5.67;1.47;;;16.10;99.90;;;;;;5068858;28;20456;-67
2022/07/27 07:40:04;;;;;;;6.85;1.80;;;16.10;99.90;;;;;;5067618;28;20711;-67
2022/07/27 07:42:30;;;;;;;5.32;1.60;;;16.10;99.90;;;;;;5068467;28;20393;-66
2022/07/27 07:44:56;;;;;;;6.30;1.90;;;16.10;99.90;;;;;;5071802;28;20388;-66
2022/07/27 07:47:22;;;;;;;5.73;1.67;;;16.20;99.90;;;;;;5072127;28;20416;-67
2022/07/27 07:49:48;;;;;;;4.73;1.70;;;16.20;99.90;;;;;;5069849;28;20513;-67
2022/07/27 07:52:14;;;;;;;4.85;1.45;;;16.30;99.90;;;;;;5069022;28;20432;-66
2022/07/27 07:54:40;;;;;;;6.83;1.50;;;16.40;99.90;;;;;;5069976;28;20477;-66
2022/07/27 07:57:05;;;;;;;4.53;1.43;;;16.50;99.90;;;;;;5072998;28;20424;-66
2022/07/27 07:59:31;;;;;;;5.13;1.60;;;16.50;99.90;;;;;;5072723;28;20669;-66
2022/07/27 08:01:57;;;;;;;4.47;1.40;;;16.50;99.90;;;;;;5072552;28;20382;-67
2022/07/27 08:04:22;;;;;;;9.80;1.98;;;16.60;99.90;;;;;;5073573;28;20385;-67
2022/07/27 08:06:48;;;;;;;6.28;1.63;;;16.70;99.90;;;;;;5076710;28;20382;-67
2022/07/27 08:09:16;;;;;;;5.72;1.48;;;16.80;99.90;;;;;;5076188;28;20416;-67
2022/07/27 08:11:42;;;;;;;4.20;1.52;;;16.90;99.90;;;;;;5075333;28;20378;-67
2022/07/27 08:14:09;;;;;;;4.97;1.38;;;17.00;99.90;;;;;;5077601;28;20406;-67
2022/07/27 08:16:35;;;;;;;5.97;1.65;;;17.00;99.90;;;;;;5079674;28;20773;-67
2022/07/27 08:19:00;;;;;;;6.07;1.63;;;17.00;99.90;;;;;;5078652;28;20399;-67
2022/07/27 08:21:27;;;;;;;5.77;1.80;;;16.80;99.90;;;;;;5077235;28;20505;-66
2022/07/27 08:23:53;;;;;;;6.13;1.55;;;16.80;99.90;;;;;;5074737;28;20382;-66
2022/07/27 08:26:19;;;;;;;5.47;1.50;;;16.70;99.90;;;;;;5076072;28;20393;-66
2022/07/27 08:28:44;;;;;;;8.60;1.73;;;16.60;99.90;;;;;;5075711;28;20676;-66
2022/07/27 08:31:10;;;;;;;9.70;1.80;;;16.60;99.90;;;;;;5072709;28;20409;-66
2022/07/27 08:33:36;;;;;;;5.35;1.95;;;16.60;99.90;;;;;;5073737;28;20422;-65
2022/07/27 08:36:01;;;;;;;6.90;1.73;;;16.60;99.90;;;;;;5072472;28;20696;-65
2022/07/27 08:38:28;;;;;;;6.03;1.67;;;16.50;99.90;;;;;;5076084;28;20607;-65
2022/07/27 08:40:54;;;;;;;5.65;1.65;;;16.50;99.90;;;;;;5077154;28;20411;-65
2022/07/27 08:43:20;;;;;;;5.22;1.50;;;16.60;99.90;;;;;;5074920;28;20836;-65
2022/07/27 08:45:53;;;;;;;6.97;1.80;;;16.70;99.90;;;;;;5077887;28;20565;-66
2022/07/27 08:48:18;;;;;;;6.03;1.90;;;16.80;99.90;;;;;;5076821;28;20385;-66
2022/07/27 08:50:47;;;;;;;6.50;1.42;;;17.00;99.90;;;;;;5074267;28;20385;-65
2022/07/27 08:53:15;;;;;;;5.30;1.60;;;17.20;99.90;;;;;;5075476;28;20413;-66
2022/07/27 08:55:43;;;;;;;5.60;1.35;;;17.40;99.90;;;;;;5075224;28;20394;-66
2022/07/27 08:58:10;;;;;;;6.75;1.88;;;17.30;99.90;;;;;;5076758;28;20374;-66
2022/07/27 09:00:39;;;;;;;5.63;1.48;;;17.40;99.90;;;;;;5074859;28;20424;-66
2022/07/27 09:03:05;;;;;;;6.03;1.50;;;17.40;99.90;;;;;;5074782;28;20481;-66
2022/07/27 09:05:31;;;;;;;5.38;1.50;;;17.50;99.90;;;;;;5074977;28;20497;-66
2022/07/27 09:08:11;;;;;;;5.68;1.58;;;17.60;99.90;;;;;;5078033;28;20819;-66
2022/07/27 09:10:37;;;;;;;4.60;1.70;;;17.50;99.90;;;;;;5076438;28;20977;-67
2022/07/27 09:13:25;;;;;;;6.07;1.60;;;17.40;99.90;;;;;;5074784;28;20482;-66
2022/07/27 09:15:56;;;;;;;5.57;1.77;;;17.40;99.90;;;;;;5074459;28;20366;-66
2022/07/27 09:18:28;;;;;;;6.65;1.73;;;17.60;99.90;;;;;;5075642;28;20378;-66
2022/07/27 09:21:17;;;;;;;3.50;1.58;;;17.60;99.90;;;;;;5075167;28;20380;-66
2022/07/27 09:23:52;;;;;;;5.97;1.80;;;17.60;99.90;;;;;;5078115;28;20379;-66
2022/07/27 09:26:23;;;;;;;4.10;1.37;;;17.60;99.90;;;;;;5078838;28;20384;-66
2022/07/27 09:28:57;;;;;;;4.27;1.60;;;17.60;99.90;;;;;;5077082;28;20794;-67
2022/07/27 09:31:23;;;;;;;5.47;1.73;;;17.90;99.90;;;;;;5078845;28;20433;-66
2022/07/27 09:33:54;;;;;;;3.72;1.50;;;18.10;99.90;;;;;;5078578;28;20456;-66
2022/07/27 09:36:22;;;;;;;5.05;1.50;;;18.10;99.90;;;;;;5077528;28;20674;-66
2022/07/27 09:39:01;;;;;;;6.50;1.55;;;17.90;99.90;;;;;;5075620;28;20374;-66
2022/07/27 09:41:40;;;;;;;5.32;1.33;;;17.90;99.90;;;;;;5073627;28;20658;-66
2022/07/27 09:44:06;;;;;;;4.97;1.35;;;17.80;99.90;;;;;;5075292;28;20510;-66
2022/07/27 09:46:36;;;;;;;3.53;1.05;;;17.60;99.90;;;;;;5077280;28;20435;-66
2022/07/27 09:49:02;;;;;;;3.58;1.25;;;17.70;99.90;;;;;;5078073;28;20835;-66
2022/07/27 09:51:28;;;;;;;7.03;1.35;;;17.80;99.90;;;;;;5079971;28;20403;-66
2022/07/27 09:53:55;;;;;;;2.47;1.00;;;17.80;99.90;;;;;;5079132;28;20402;-67
2022/07/27 09:56:30;;;;;;;3.33;1.10;;;17.90;99.90;;;;;;5078822;28;20377;-67
2022/07/27 09:58:58;;;;;;;3.55;1.00;;;18.10;99.90;;;;;;5079571;28;20394;-67
2022/07/27 10:01:24;;;;;;;3.47;1.10;;;18.20;99.90;;;;;;5080215;28;20590;-67
2022/07/27 10:03:54;;;;;;;3.70;1.48;;;18.10;99.90;;;;;;5077289;28;20407;-67
2022/07/27 10:06:21;;;;;;;6.07;1.40;;;18.10;99.90;;;;;;5077515;28;20385;-67
2022/07/27 10:08:49;;;;;;;4.50;1.40;;;18.10;99.90;;;;;;5078730;28;20386;-67
2022/07/27 10:11:17;;;;;;;4.00;1.30;;;18.10;99.90;;;;;;5078641;28;20373;-67
2022/07/27 10:13:43;;;;;;;2.28;1.05;;;18.20;99.90;;;;;;5078349;28;20420;-67
2022/07/27 10:16:21;;;;;;;3.88;1.38;;;18.10;99.90;;;;;;5078417;28;20370;-67
2022/07/27 10:19:11;;;;;;;4.85;1.70;;;18.00;99.90;;;;;;5078852;28;20390;-67
2022/07/27 10:21:38;;;;;;;8.60;1.60;;;17.80;99.90;;;;;;5079329;28;20483;-67
2022/07/27 10:24:09;;;;;;;7.57;1.53;;;17.90;99.90;;;;;;5078814;28;20386;-67
2022/07/27 10:26:36;;;;;;;3.93;1.30;;;18.00;99.90;;;;;;5078283;28;20819;-67
2022/07/27 10:29:18;;;;;;;6.55;1.77;;;18.10;99.90;;;;;;5078188;28;20794;-67
2022/07/27 10:31:52;;;;;;;6.72;1.98;;;18.10;99.90;;;;;;5077501;28;20402;-67
2022/07/27 10:34:36;;;;;;;4.53;1.48;;;18.10;99.90;;;;;;5080804;28;20488;-66
2022/07/27 10:37:14;;;;;;;4.90;1.60;;;18.20;99.90;;;;;;5081306;28;20386;-66
2022/07/27 10:39:48;;;;;;;5.22;1.45;;;18.10;99.90;;;;;;5078144;28;20687;-66
2022/07/27 10:42:34;;;;;;;4.45;1.70;;;18.20;99.90;;;;;;5081511;28;20470;-66
2022/07/27 10:45:04;;;;;;;4.82;1.65;;;18.20;99.90;;;;;;5084469;28;20477;-66
2022/07/27 10:47:34;;;;;;;4.20;1.38;;;18.30;99.90;;;;;;5080600;28;20386;-66
2022/07/27 10:50:15;;;;;;;5.23;1.40;;;18.40;99.90;;;;;;5076385;28;20386;-66
2022/07/27 10:52:45;;;;;;;5.22;1.63;;;18.60;99.90;;;;;;5072181;28;20521;-66
2022/07/27 10:55:29;;;;;;;2.70;1.20;;;18.50;99.90;;;;;;5071600;28;20556;-67
2022/07/27 10:57:55;;;;;;;5.57;1.23;;;18.20;99.90;;;;;;5071915;28;21029;-67
2022/07/27 11:00:49;;;;;;;4.70;1.40;;;18.10;99.90;;;;;;5069417;28;20382;-67
2022/07/27 11:03:25;;;;;;;6.07;1.75;;;18.20;99.90;;;;;;5068526;28;20442;-67
2022/07/27 11:06:18;;;;;;;4.97;1.30;;;18.30;99.90;;;;;;5070953;28;20382;-67
2022/07/27 11:08:47;;;;;;;3.83;1.37;;;18.30;99.90;;;;;;5074393;28;20390;-67
2022/07/27 11:11:15;;;;;;;4.47;1.38;;;18.30;99.90;;;;;;5072018;28;20661;-67
2022/07/27 11:13:41;;;;;;;3.72;1.30;;;18.20;99.90;;;;;;5071342;28;20801;-67
2022/07/27 11:16:09;;;;;;;3.80;1.10;;;18.30;99.90;;;;;;5071665;28;20413;-67
2022/07/27 11:18:37;;;;;;;5.70;1.50;;;18.30;99.90;;;;;;5071577;28;20435;-67
2022/07/27 11:21:23;;;;;;;3.50;0.90;;;18.40;99.90;;;;;;5072687;28;20382;-66
2022/07/27 11:23:54;;;;;;;6.90;1.90;;;18.50;99.90;;;;;;5073210;28;20679;-67
2022/07/27 11:26:22;;;;;;;4.10;1.40;;;18.60;99.90;;;;;;5069602;28;20670;-67
2022/07/27 11:28:48;;;;;;;3.15;1.25;;;18.80;99.90;;;;;;5070745;28;20626;-67
2022/07/27 11:31:14;;;;;;;7.23;1.50;;;19.00;99.90;;;;;;5069544;28;20827;-67
2022/07/27 11:33:57;;;;;;;3.67;1.30;;;19.00;99.90;;;;;;5071398;28;20417;-67
2022/07/27 11:36:39;;;;;;;3.75;1.25;;;19.00;99.90;;;;;;5072670;28;21250;-67
2022/07/27 11:39:07;;;;;;;6.50;1.70;;;19.10;99.90;;;;;;5071137;28;20793;-67
2022/07/27 11:41:35;;;;;;;5.40;1.70;;;19.00;99.90;;;;;;5072558;28;20486;-67
2022/07/27 11:44:04;;;;;;;5.03;1.50;;;18.80;99.90;;;;;;5071619;28;20392;-67
2022/07/27 11:46:41;;;;;;;4.80;1.70;;;18.70;99.90;;;;;;5072629;28;20386;-67
2022/07/27 11:49:12;;;;;;;5.53;1.77;;;18.70;99.90;;;;;;5071438;28;20417;-67
2022/07/27 11:51:44;;;;;;;6.28;1.63;;;18.60;99.90;;;;;;5069479;28;20812;-67
2022/07/27 11:54:22;;;;;;;5.18;1.80;;;18.50;99.90;;;;;;5069613;28;20445;-67
2022/07/27 11:56:59;;;;;;;5.97;1.30;;;18.40;99.90;;;;;;5071815;28;20393;-67
2022/07/27 11:59:36;;;;;;;4.03;1.47;;;18.40;99.90;;;;;;5071700;28;20705;-67
2022/07/27 12:02:12;;;;;;;3.72;1.30;;;18.60;99.90;;;;;;5072183;28;20443;-67
2022/07/27 12:04:43;;;;;;;3.60;1.15;;;18.80;99.90;;;;;;5071087;28;20844;-67
2022/07/27 12:07:20;;;;;;;5.13;1.40;;;18.90;99.90;;;;;;5073419;28;20654;-67
2022/07/27 12:09:56;;;;;;;4.90;1.38;;;19.10;99.90;;;;;;5075636;28;20390;-67
2022/07/27 12:12:30;;;;;;;6.85;1.73;;;19.10;99.90;;;;;;5072658;28;20394;-67
2022/07/27 12:15:01;;;;;;;4.53;1.90;;;18.80;99.90;;;;;;5069380;28;20524;-67
2022/07/27 12:17:30;;;;;;;7.57;1.90;;;18.70;99.90;;;;;;5068127;28;20378;-67
2022/07/27 12:20:00;;;;;;;6.95;1.73;;;18.70;99.90;;;;;;5068474;28;20397;-67
2022/07/27 12:22:30;;;;;;;3.67;1.50;;;18.80;99.90;;;;;;5067334;28;20689;-67
2022/07/27 12:24:58;;;;;;;4.60;1.50;;;18.80;99.90;;;;;;5068257;28;20386;-67
2022/07/27 12:27:27;;;;;;;5.93;1.73;;;18.70;99.90;;;;;;5072920;28;20505;-67
2022/07/27 12:30:00;;;;;;;7.85;1.73;;;18.50;99.90;;;;;;5072077;28;20396;-67
2022/07/27 12:32:28;;;;;;;6.43;1.85;;;18.60;99.90;;;;;;5074830;28;20492;-67
2022/07/27 12:34:54;;;;;;;11.05;2.10;;;18.50;99.90;;;;;;5076270;28;20665;-67
2022/07/27 12:37:21;;;;;;;6.35;1.75;;;18.50;99.90;;;;;;5075902;28;20756;-67
2022/07/27 12:39:48;;;;;;;5.68;1.75;;;18.40;99.90;;;;;;5071714;28;20808;-67
2022/07/27 12:42:13;;;;;;;4.88;1.33;;;18.50;99.90;;;;;;5071744;28;20597;-67
2022/07/27 12:44:43;;;;;;;7.10;1.50;;;18.70;99.90;;;;;;5076327;28;20572;-67
2022/07/27 12:50:09;;;;;;;4.93;1.38;;;18.80;99.90;;;;;;5064170;28;20378;-67
2022/07/27 12:52:37;;;;;;;6.03;1.65;;;18.90;99.90;;;;;;5075028;28;20449;-67
2022/07/27 12:55:03;;;;;;;5.20;1.50;;;19.10;99.90;;;;;;5075702;28;20790;-67
2022/07/27 12:57:30;;;;;;;3.75;1.13;;;19.10;99.90;;;;;;5073457;28;20521;-67
2022/07/27 12:59:55;;;;;;;3.75;1.20;;;19.10;99.90;;;;;;5067527;28;20388;-67